Terminal Aerodrome Forecast
Issued by NWS Charleston, WV

Current Version | Previous Version | Graphics & Text | Print | Product List | Glossary On
Versions: 1 2 3 4 5 6 7 8 9 10 11 12 13 14 15 16 17 18 19 20 21 22 23 24 25 26 27 28 29 30
000
FTUS41 KRLX 181732
TAFPKB
TAF
KPKB 181732Z 1818/1918 19011G19KT P6SM OVC035
     FM182000 19014G24KT P6SM OVC035
      TEMPO 1823/1903 2SM SHRA OVC025
     FM190300 20013G22KT 4SM SHRA OVC015
     FM190400 29019G35KT P6SM OVC015
     FM190500 29014G24KT P6SM OVC015
     FM190700 28015G26KT P6SM SHRA OVC015
     FM190800 27014G24KT P6SM SHRA OVC020
     FM190900 27013G22KT P6SM OVC020=

USA.gov is the U.S. government's official web portal to all federal, state and local government web resources and services.